createdAt,value
2023-05-22T00:17:19.687Z,16.45
2023-05-22T00:21:00.579Z,16.44
2023-05-22T00:24:01.310Z,16.12
2023-05-22T00:26:34.398Z,17.14
2023-05-22T00:29:01.836Z,16.46
2023-05-22T00:31:57.932Z,16.39
2023-05-22T00:35:01.974Z,16.60
2023-05-22T00:37:36.736Z,17.05
2023-05-22T00:43:47.013Z,16.65
2023-05-22T00:50:01.680Z,16.11
2023-05-22T00:55:31.263Z,16.52
2023-05-22T00:58:05.683Z,17.33
2023-05-22T01:01:29.461Z,16.07
2023-05-22T01:07:29.124Z,16.41
2023-05-22T01:10:02.372Z,16.50
2023-05-22T01:13:27.610Z,16.98
2023-05-22T01:17:02.746Z,16.54
2023-05-22T01:20:34.741Z,17.29
2023-05-22T01:24:02.434Z,17.14
2023-05-22T01:30:50.087Z,17.06
2023-05-22T01:37:02.128Z,15.83
2023-05-22T01:39:39.613Z,16.08
2023-05-22T01:42:21.949Z,15.73
2023-05-22T01:45:01.318Z,17.08
2023-05-22T01:47:43.484Z,17.03
2023-05-22T01:50:36.150Z,16.99
2023-05-22T01:53:57.214Z,16.95
2023-05-22T01:56:44.444Z,15.84
2023-05-22T01:59:48.187Z,17.01
2023-05-22T02:05:45.287Z,16.58
2023-05-22T02:08:31.172Z,16.77
2023-05-22T02:11:55.283Z,16.58
2023-05-22T02:15:08.241Z,16.57
2023-05-22T02:18:25.574Z,16.27
2023-05-22T02:21:21.168Z,16.32
2023-05-22T02:24:09.949Z,16.30
2023-05-22T02:26:57.053Z,15.52
2023-05-22T02:30:03.444Z,16.83
2023-05-22T02:32:44.004Z,16.47
2023-05-22T02:35:19.440Z,15.87
2023-05-22T02:38:02.765Z,16.38
2023-05-22T02:41:11.297Z,16.85
2023-05-22T02:47:02.716Z,16.67
2023-05-22T02:49:47.119Z,16.28
2023-05-22T02:52:55.170Z,16.40
2023-05-22T02:58:15.936Z,16.69
2023-05-22T03:00:50.022Z,16.10
2023-05-22T03:03:40.370Z,16.51
2023-05-22T03:06:31.145Z,16.34
2023-05-22T03:10:01.592Z,15.73
2023-05-22T03:13:02.362Z,15.63
2023-05-22T03:16:02.784Z,15.73
2023-05-22T03:18:54.252Z,15.70
2023-05-22T03:22:01.252Z,16.20
2023-05-22T03:25:12.154Z,16.18
2023-05-22T03:27:45.537Z,16.06
2023-05-22T03:30:30.946Z,15.29
2023-05-22T03:33:20.659Z,15.57
2023-05-22T03:35:50.854Z,15.88
2023-05-22T03:38:35.689Z,15.30
2023-05-22T03:41:27.418Z,15.91
2023-05-22T03:56:02.807Z,15.17
2023-05-22T03:58:43.641Z,15.42
2023-05-22T04:04:47.247Z,15.84
2023-05-22T04:11:02.704Z,15.54
2023-05-22T04:13:59.495Z,16.21
2023-05-22T04:16:41.119Z,16.15
2023-05-22T04:19:37.468Z,15.89
2023-05-22T04:22:28.350Z,15.12
2023-05-22T04:25:29.358Z,16.04
2023-05-22T04:28:11.625Z,15.71
2023-05-22T04:30:54.095Z,16.39
2023-05-22T04:36:49.404Z,16.09
2023-05-22T04:39:40.105Z,15.80
2023-05-22T04:42:36.099Z,16.10
2023-05-22T04:45:20.779Z,16.07
2023-05-22T04:48:01.446Z,16.91
2023-05-22T04:50:50.595Z,17.05
2023-05-22T04:59:29.495Z,17.40
2023-05-22T05:03:21.718Z,17.82
2023-05-22T05:10:05.094Z,19.23
2023-05-22T05:15:10.826Z,20.19
2023-05-22T05:24:19.836Z,19.55
2023-05-22T05:27:02.142Z,19.93
2023-05-22T05:30:52.918Z,19.68
2023-05-22T05:37:39.112Z,17.67
2023-05-22T05:40:50.198Z,18.64
2023-05-22T05:43:44.652Z,18.44
2023-05-22T05:46:38.267Z,19.03
2023-05-22T05:49:48.610Z,18.50
2023-05-22T05:53:12.830Z,18.61
2023-05-22T05:55:59.770Z,19.62
2023-05-22T05:58:36.068Z,18.72
2023-05-22T06:01:36.137Z,19.82
2023-05-22T06:04:30.186Z,18.89
2023-05-22T06:07:23.972Z,18.68
2023-05-22T06:10:48.987Z,19.04
2023-05-22T06:17:42.961Z,19.02
2023-05-22T06:20:35.874Z,19.33
2023-05-22T06:23:30.199Z,18.81
2023-05-22T06:29:25.459Z,20.10
2023-05-22T06:35:11.053Z,19.84
2023-05-22T06:38:46.047Z,19.95
2023-05-22T06:42:20.112Z,20.78
2023-05-22T06:45:39.827Z,20.55
2023-05-22T06:48:54.687Z,21.59
2023-05-22T06:51:41.177Z,22.12
2023-05-22T06:55:01.948Z,22.28
2023-05-22T06:57:56.590Z,22.08
2023-05-22T07:00:44.617Z,22.98
2023-05-22T07:08:01.570Z,24.97
2023-05-22T07:11:29.238Z,25.66
2023-05-22T07:14:44.968Z,23.75
2023-05-22T07:18:29.542Z,22.48
2023-05-22T07:21:35.466Z,23.14
2023-05-22T07:24:21.205Z,24.60
2023-05-22T07:27:02.557Z,24.47
2023-05-22T07:29:42.637Z,22.29
2023-05-22T07:32:17.303Z,22.74
2023-05-22T07:35:11.483Z,21.05
2023-05-22T07:37:48.330Z,22.00
2023-05-22T07:40:34.123Z,23.10
2023-05-22T07:43:02.576Z,22.11
2023-05-22T07:45:40.800Z,22.71
2023-05-22T07:48:17.813Z,22.11
2023-05-22T07:51:31.634Z,22.99
2023-05-22T07:54:34.617Z,22.31
2023-05-22T07:57:17.948Z,22.76
2023-05-22T07:59:47.852Z,23.73
2023-05-22T08:02:16.338Z,24.59
2023-05-22T08:04:44.774Z,22.91
2023-05-22T08:07:26.862Z,22.89
2023-05-22T08:09:56.855Z,24.12
2023-05-22T08:12:24.207Z,23.13
2023-05-22T08:14:59.047Z,22.11
2023-05-22T08:17:27.016Z,24.05
2023-05-22T08:19:57.149Z,23.72
2023-05-22T08:22:38.731Z,23.65
2023-05-22T08:25:09.977Z,23.19
2023-05-22T08:27:53.438Z,23.68
2023-05-22T08:30:58.716Z,24.70
2023-05-22T08:34:02.199Z,26.02
2023-05-22T08:37:10.891Z,24.21
2023-05-22T08:39:38.177Z,24.42
2023-05-22T08:42:28.671Z,24.29
2023-05-22T08:45:17.262Z,24.04
2023-05-22T08:47:57.870Z,25.47
2023-05-22T08:50:53.779Z,24.85
2023-05-22T08:53:36.766Z,25.16
2023-05-22T08:56:11.838Z,25.39
2023-05-22T08:58:50.564Z,25.86
2023-05-22T09:01:32.626Z,23.99
2023-05-22T09:04:02.114Z,24.31
2023-05-22T09:06:33.068Z,24.67
2023-05-22T09:09:07.866Z,25.79
2023-05-22T09:11:35.651Z,25.51
2023-05-22T09:14:13.505Z,26.40
2023-05-22T09:17:11.494Z,27.11
2023-05-22T09:21:02.059Z,26.25
2023-05-22T09:23:54.675Z,26.41
2023-05-22T09:26:24.315Z,25.03
2023-05-22T09:29:00.140Z,24.52
2023-05-22T09:31:55.933Z,24.95
2023-05-22T09:35:32.662Z,24.96
2023-05-22T09:38:19.575Z,25.90
2023-05-22T09:41:10.123Z,25.74
2023-05-22T09:44:02.256Z,26.50
2023-05-22T09:46:44.260Z,25.57
2023-05-22T09:49:17.891Z,26.79
2023-05-22T09:51:51.055Z,27.57
2023-05-22T09:54:24.263Z,27.41
2023-05-22T09:57:01.044Z,27.91
2023-05-22T09:59:36.114Z,27.23
2023-05-22T10:02:11.592Z,27.60
2023-05-22T10:05:05.179Z,27.54
2023-05-22T10:08:52.924Z,28.14
2023-05-22T10:12:22.949Z,26.71
2023-05-22T10:15:07.711Z,25.31
2023-05-22T10:17:41.382Z,26.24
2023-05-22T10:20:16.792Z,27.08
2023-05-22T10:23:16.502Z,25.65
2023-05-22T10:26:08.988Z,26.19
2023-05-22T10:28:57.600Z,26.58
2023-05-22T10:31:52.939Z,27.21
2023-05-22T10:34:52.304Z,27.21
2023-05-22T10:37:48.383Z,26.92
2023-05-22T10:40:48.005Z,27.49
2023-05-22T10:43:52.917Z,27.60
2023-05-22T10:46:39.038Z,27.88
2023-05-22T10:49:40.749Z,27.71
2023-05-22T10:53:06.744Z,28.56
2023-05-22T10:55:49.806Z,27.51
2023-05-22T10:58:21.205Z,26.34
2023-05-22T11:01:07.669Z,26.20
2023-05-22T11:03:57.469Z,25.29
2023-05-22T11:06:49.208Z,26.82
2023-05-22T11:09:47.124Z,27.91
2023-05-22T11:12:29.122Z,27.42
2023-05-22T11:15:08.154Z,27.58
2023-05-22T11:17:59.874Z,28.34
2023-05-22T11:21:16.175Z,28.50
2023-05-22T11:24:31.093Z,29.63
2023-05-22T11:27:18.517Z,30.16
2023-05-22T11:33:12.376Z,29.66
2023-05-22T11:36:27.536Z,29.98
2023-05-22T11:39:40.296Z,29.30
2023-05-22T11:42:45.935Z,29.92
2023-05-22T11:45:28.322Z,26.18
2023-05-22T11:48:43.456Z,28.62
2023-05-22T11:52:16.083Z,28.04
2023-05-22T11:55:19.076Z,28.47
2023-05-22T11:57:48.831Z,27.86
2023-05-22T12:00:19.231Z,28.06
2023-05-22T12:02:48.008Z,28.05
2023-05-22T12:05:23.487Z,28.85
2023-05-22T12:08:16.647Z,28.24
2023-05-22T12:11:24.880Z,26.58
2023-05-22T12:14:21.437Z,25.71
2023-05-22T12:16:53.276Z,25.69
2023-05-22T12:22:26.697Z,25.69
2023-05-22T12:24:57.737Z,25.93
2023-05-22T12:27:40.154Z,26.17
2023-05-22T12:30:30.753Z,25.79
2023-05-22T12:33:19.625Z,25.72
2023-05-22T12:35:53.800Z,25.02
2023-05-22T12:38:22.773Z,26.00
2023-05-22T12:41:26.271Z,26.82
2023-05-22T12:44:41.355Z,26.59
2023-05-22T12:47:42.980Z,26.62
2023-05-22T12:51:18.563Z,26.22
2023-05-22T12:54:02.814Z,26.57
2023-05-22T12:56:39.641Z,25.69
2023-05-22T12:59:19.409Z,25.80
2023-05-22T13:01:57.339Z,26.49
2023-05-22T13:08:18.345Z,27.13
2023-05-22T13:12:00.570Z,27.05
2023-05-22T13:14:45.032Z,27.28
2023-05-22T13:17:17.792Z,26.89
2023-05-22T13:19:45.198Z,26.87
2023-05-22T13:22:12.656Z,26.04
2023-05-22T13:24:40.157Z,25.92
2023-05-22T13:27:07.452Z,26.26
2023-05-22T13:29:55.077Z,26.28
2023-05-22T13:32:41.683Z,25.72
2023-05-22T13:35:09.394Z,25.44
2023-05-22T13:37:58.930Z,25.65
2023-05-22T13:40:59.828Z,26.23
2023-05-22T13:44:00.044Z,26.34
2023-05-22T13:46:27.255Z,25.93
2023-05-22T13:48:54.767Z,26.69
2023-05-22T13:51:40.095Z,26.37
2023-05-22T13:54:42.452Z,26.03
2023-05-22T13:57:25.001Z,26.10
2023-05-22T13:59:54.491Z,26.74
2023-05-22T14:02:26.670Z,26.49
2023-05-22T14:04:57.100Z,26.53
2023-05-22T14:07:24.818Z,25.97
2023-05-22T14:09:53.441Z,26.25
2023-05-22T14:12:26.824Z,26.43
2023-05-22T14:14:54.052Z,25.93
2023-05-22T14:17:21.191Z,26.46
2023-05-22T14:19:50.796Z,26.05
2023-05-22T14:22:38.497Z,25.44
2023-05-22T14:25:43.157Z,26.56
2023-05-22T14:28:22.981Z,26.48
2023-05-22T14:31:28.394Z,25.91
2023-05-22T14:34:22.890Z,27.07
2023-05-22T14:36:55.104Z,26.86
2023-05-22T14:40:01.032Z,26.91
2023-05-22T14:42:57.773Z,26.84
2023-05-22T14:45:52.814Z,26.73
2023-05-22T14:48:26.985Z,25.81
2023-05-22T14:51:01.260Z,26.31
2023-05-22T14:53:32.874Z,26.02
2023-05-22T14:56:00.209Z,26.17
2023-05-22T14:58:29.947Z,26.06
2023-05-22T15:00:57.887Z,26.27
2023-05-22T15:03:44.978Z,26.59
2023-05-22T15:06:46.007Z,26.92
2023-05-22T15:09:38.950Z,26.33
2023-05-22T15:12:07.127Z,26.43
2023-05-22T15:14:37.777Z,26.28
2023-05-22T15:17:09.689Z,26.39
2023-05-22T15:19:39.470Z,26.79
2023-05-22T15:22:25.653Z,27.05
2023-05-22T15:25:06.810Z,27.49
2023-05-22T15:27:38.300Z,27.85
2023-05-22T15:30:22.615Z,27.11
2023-05-22T15:32:56.344Z,28.34
2023-05-22T15:35:26.587Z,27.70
2023-05-22T15:38:20.058Z,26.84
2023-05-22T15:42:02.290Z,27.35
2023-05-22T15:45:22.262Z,26.58
2023-05-22T15:48:33.451Z,26.98
2023-05-22T15:51:37.505Z,27.23
2023-05-22T15:54:23.894Z,26.56
2023-05-22T15:56:59.771Z,27.10
2023-05-22T16:02:31.412Z,27.75
2023-05-22T16:05:46.959Z,27.24
2023-05-22T16:08:41.394Z,27.10
2023-05-22T16:18:33.835Z,27.04
2023-05-22T16:22:44.231Z,27.16
2023-05-22T16:28:59.322Z,26.82
2023-05-22T16:31:50.515Z,27.49
2023-05-22T16:37:42.607Z,27.40
2023-05-22T16:40:53.552Z,27.31
2023-05-22T16:48:03.270Z,26.41
2023-05-22T16:51:12.594Z,26.78
2023-05-22T16:54:01.831Z,26.75
2023-05-22T16:57:02.974Z,26.16
2023-05-22T17:03:12.628Z,27.36
2023-05-22T17:12:31.627Z,26.56
2023-05-22T17:22:37.131Z,25.85
2023-05-22T17:25:40.486Z,26.24
2023-05-22T17:28:29.570Z,26.71
2023-05-22T17:31:23.280Z,26.21
2023-05-22T17:34:02.472Z,25.79
2023-05-22T17:37:00.510Z,26.49
2023-05-22T17:39:31.588Z,25.91
2023-05-22T17:43:00.813Z,25.99
2023-05-22T17:45:45.496Z,26.10
2023-05-22T17:48:49.630Z,25.51
2023-05-22T17:51:52.155Z,25.49
2023-05-22T17:54:23.002Z,25.04
2023-05-22T17:57:12.040Z,25.78
2023-05-22T18:03:44.580Z,24.60
2023-05-22T18:06:46.929Z,24.71
2023-05-22T18:09:34.309Z,25.20
2023-05-22T18:15:05.503Z,24.20
2023-05-22T18:18:03.149Z,24.02
2023-05-22T18:20:55.905Z,24.07
2023-05-22T18:30:36.699Z,23.06
2023-05-22T18:36:55.887Z,23.12
2023-05-22T18:43:55.075Z,22.85
2023-05-22T18:48:07.358Z,23.21
2023-05-22T18:51:47.761Z,23.05
2023-05-22T18:55:12.618Z,22.29
2023-05-22T18:58:02.723Z,22.71
2023-05-22T19:06:01.984Z,22.32
2023-05-22T19:13:23.259Z,21.67
2023-05-22T19:16:43.073Z,21.70
2023-05-22T19:24:01.734Z,21.21
2023-05-22T19:27:19.386Z,21.26
2023-05-22T19:30:54.391Z,21.76
2023-05-22T19:33:59.830Z,21.64
2023-05-22T19:37:14.135Z,21.07
2023-05-22T19:45:41.030Z,21.08
2023-05-22T19:49:03.518Z,21.46
2023-05-22T19:55:02.092Z,20.79
2023-05-22T20:13:39.203Z,20.63
2023-05-22T20:20:02.636Z,19.49
2023-05-22T20:32:33.763Z,20.49
2023-05-22T20:39:36.007Z,20.54
2023-05-22T20:43:34.327Z,20.53
2023-05-22T20:49:30.799Z,20.40
2023-05-22T20:52:33.901Z,20.12
2023-05-22T20:55:03.468Z,20.12
2023-05-22T20:59:02.836Z,20.69
2023-05-22T21:01:46.030Z,20.42
2023-05-22T21:04:21.450Z,20.19
2023-05-22T21:07:21.659Z,20.60
2023-05-22T21:10:43.985Z,20.20
2023-05-22T21:18:07.441Z,20.37
2023-05-22T21:20:50.644Z,20.05
2023-05-22T21:23:27.494Z,20.37
2023-05-22T21:26:23.616Z,20.04
2023-05-22T21:29:09.494Z,20.11
2023-05-22T21:32:11.331Z,19.66
2023-05-22T21:35:28.149Z,19.39
2023-05-22T21:38:02.513Z,19.36
2023-05-22T21:41:04.139Z,18.72
2023-05-22T21:47:16.537Z,19.67
2023-05-22T21:50:18.691Z,19.66
2023-05-22T21:57:25.535Z,19.56
2023-05-22T22:00:30.110Z,19.37
2023-05-22T22:03:38.953Z,19.08
2023-05-22T22:09:58.609Z,18.17
2023-05-22T22:13:03.664Z,18.13
2023-05-22T22:16:24.631Z,19.35
2023-05-22T22:22:14.589Z,19.20
2023-05-22T22:25:02.618Z,18.54
2023-05-22T22:27:35.874Z,18.08
2023-05-22T22:30:27.111Z,18.50
2023-05-22T22:33:03.949Z,18.30
2023-05-22T22:35:53.843Z,18.39
2023-05-22T22:41:53.710Z,18.31
2023-05-22T22:44:51.737Z,18.24
2023-05-22T22:47:33.947Z,18.37
2023-05-22T22:50:04.769Z,18.22
2023-05-22T22:53:01.152Z,18.13
2023-05-22T22:55:38.842Z,17.87
2023-05-22T22:58:15.837Z,18.22
2023-05-22T23:03:57.605Z,18.64
2023-05-22T23:06:35.492Z,17.94
2023-05-22T23:09:29.787Z,17.99
2023-05-22T23:12:40.450Z,18.02
2023-05-22T23:15:47.539Z,18.38
2023-05-22T23:18:37.272Z,18.17
2023-05-22T23:21:32.077Z,17.46
2023-05-22T23:27:00.349Z,17.95
2023-05-22T23:29:39.807Z,18.24
2023-05-22T23:32:33.821Z,17.83
2023-05-22T23:35:14.682Z,18.45
2023-05-22T23:38:43.938Z,18.47
2023-05-22T23:41:50.718Z,17.66
2023-05-22T23:44:41.220Z,18.00
2023-05-22T23:50:47.699Z,17.64
2023-05-22T23:57:00.612Z,17.51
2023-05-22T23:59:35.604Z,16.61
